Time;durP1;ratioP1;P1;durP2;ratioP2;P2;SDS_P1;SDS_P2;PMS_P1;PMS_P2;Temp;Humidity;BMP_temperature;BMP_pressure;BME280_temperature;BME280_humidity;BME280_pressure;Samples;Min_cycle;Max_cycle;Signal;HPM_P1;HPM_P2
2022/06/15 00:00:39;;;;;;;0.50;0.50;;;;;;;14.06;69.76;100092.03;4977850;28;20174;-69
2022/06/15 00:03:09;;;;;;;0.85;0.85;;;;;;;14.05;69.54;100095.47;4977132;28;20122;-69
2022/06/15 00:05:38;;;;;;;;;;;;;;;13.96;69.26;100093.81;4978163;28;20130;-69
2022/06/15 00:08:07;;;;;;;0.40;0.40;;;;;;;13.78;69.49;100096.53;4977189;28;19922;-69
2022/06/15 00:10:36;;;;;;;0.55;0.55;;;;;;;13.74;69.74;100096.56;4977018;28;20081;-69
2022/06/15 00:13:05;;;;;;;0.60;0.60;;;;;;;13.74;69.68;100088.88;4976950;28;20130;-69
2022/06/15 00:15:34;;;;;;;0.68;0.68;;;;;;;13.75;69.61;100091.41;4977334;28;20125;-69
2022/06/15 00:18:05;;;;;;;;;;;;;;;13.69;69.69;100090.63;4977109;28;20050;-69
2022/06/15 00:20:33;;;;;;;0.40;0.40;;;;;;;13.50;69.70;100081.34;4977277;28;19922;-67
2022/06/15 00:23:02;;;;;;;1.48;1.17;;;;;;;13.30;70.06;100086.56;4976828;28;20051;-67
2022/06/15 00:25:31;;;;;;;0.75;0.75;;;;;;;13.15;70.69;100087.50;4977384;28;20039;-68
2022/06/15 00:28:00;;;;;;;0.43;0.43;;;;;;;13.11;71.01;100079.84;4976827;28;20101;-69
2022/06/15 00:30:29;;;;;;;0.50;0.50;;;;;;;13.24;71.09;100086.63;4975794;28;20447;-69
2022/06/15 00:32:58;;;;;;;0.55;0.55;;;;;;;13.35;70.67;100079.72;4977226;28;20436;-69
2022/06/15 00:35:31;;;;;;;0.73;0.73;;;;;;;13.44;70.35;100088.22;4975812;28;20038;-69
2022/06/15 00:38:07;;;;;;;0.50;0.50;;;;;;;13.57;69.80;100095.81;4976610;28;20518;-69
2022/06/15 00:40:39;;;;;;;0.77;0.73;;;;;;;13.62;69.36;100094.09;4976590;28;20086;-69
2022/06/15 00:43:14;;;;;;;0.57;0.57;;;;;;;13.61;68.89;100102.63;4976473;28;20117;-69
2022/06/15 00:45:43;;;;;;;0.32;0.32;;;;;;;13.35;69.16;100095.97;4977007;28;20141;-69
2022/06/15 00:48:12;;;;;;;0.60;0.57;;;;;;;13.09;69.35;100097.78;4976491;28;20078;-68
2022/06/15 00:50:43;;;;;;;0.70;0.70;;;;;;;12.84;69.80;100095.31;4975378;28;20035;-67
2022/06/15 00:53:12;;;;;;;0.70;0.70;;;;;;;12.72;70.19;100091.91;4976468;28;20414;-68
2022/06/15 00:55:42;;;;;;;0.60;0.60;;;;;;;12.46;70.60;100087.69;4976641;28;20046;-68
2022/06/15 00:58:13;;;;;;;0.55;0.55;;;;;;;12.39;71.01;100091.13;4976609;28;20046;-68
2022/06/15 01:00:42;;;;;;;0.47;0.47;;;;;;;12.27;71.38;100086.00;4976227;28;20133;-68
2022/06/15 01:03:12;;;;;;;0.73;0.63;;;;;;;12.06;72.04;100087.75;4976186;28;20050;-68
2022/06/15 01:05:54;;;;;;;0.70;0.70;;;;;;;12.01;72.66;100094.56;4976412;28;20129;-68
2022/06/15 01:08:34;;;;;;;0.52;0.52;;;;;;;11.98;73.09;100086.91;4976077;28;20054;-69
2022/06/15 01:11:19;;;;;;;0.65;0.65;;;;;;;11.90;73.25;100100.53;4976239;28;20509;-69
2022/06/15 01:14:06;;;;;;;0.43;0.43;;;;;;;11.84;73.46;100101.38;4976185;28;20455;-69
2022/06/15 01:16:41;;;;;;;0.70;0.70;;;;;;;11.66;73.93;100101.31;4975627;28;20043;-69
2022/06/15 01:19:38;;;;;;;2.10;1.60;;;;;;;11.61;74.30;100097.06;4975808;28;20128;-69
2022/06/15 01:22:23;;;;;;;0.85;0.75;;;;;;;11.59;75.07;100094.47;4976059;28;20057;-69
2022/06/15 01:25:10;;;;;;;0.80;0.70;;;;;;;11.47;75.30;100099.56;4974401;28;20039;-69
2022/06/15 01:28:03;;;;;;;0.65;0.65;;;;;;;11.41;75.86;100094.47;4974831;28;20099;-68
2022/06/15 01:30:45;;;;;;;0.70;0.70;;;;;;;11.39;76.04;100094.47;4975943;28;20053;-69
2022/06/15 01:33:27;;;;;;;0.40;0.40;;;;;;;11.19;76.03;100052.66;4975959;28;20380;-69
2022/06/15 01:36:04;;;;;;;0.82;0.82;;;;;;;11.44;75.92;100102.13;4975827;28;20047;-69
2022/06/15 01:38:45;;;;;;;0.43;0.43;;;;;;;11.55;75.92;100092.78;4975546;28;20047;-69
2022/06/15 01:41:21;;;;;;;0.47;0.47;;;;;;;11.67;75.86;100077.47;4975500;28;20138;-69
2022/06/15 01:43:57;;;;;;;0.60;0.60;;;;;;;11.91;75.75;100097.13;4976015;28;20130;-69
2022/06/15 01:46:30;;;;;;;0.95;0.95;;;;;;;12.07;75.09;100089.44;4975243;28;20051;-69
2022/06/15 01:49:02;;;;;;;3.08;1.25;;;;;;;12.17;74.73;100089.44;4974505;28;20047;-69
2022/06/15 01:51:38;;;;;;;0.43;0.35;;;;;;;12.26;73.84;100085.16;4975539;28;20054;-67
2022/06/15 01:54:11;;;;;;;0.40;0.40;;;;;;;12.35;73.41;100084.31;4974128;28;20130;-67
2022/06/15 01:56:45;;;;;;;0.45;0.45;;;;;;;12.23;72.87;100059.59;4974269;28;20082;-68
2022/06/15 01:59:21;;;;;;;0.40;0.40;;;;;;;12.39;72.58;100091.13;4974006;28;20058;-69
2022/06/15 02:02:01;;;;;;;0.68;0.68;;;;;;;12.40;72.11;100088.59;4975124;28;20046;-69
2022/06/15 02:04:46;;;;;;;1.02;0.80;;;;;;;12.42;71.86;100088.56;4974571;28;20126;-69
2022/06/15 02:07:35;;;;;;;6.32;0.85;;;;;;;12.46;71.58;100087.69;4974954;28;20039;-69
2022/06/15 02:10:09;;;;;;;0.38;0.38;;;;;;;12.40;71.46;100095.41;4974097;28;20074;-69
2022/06/15 02:12:47;;;;;;;0.40;0.40;;;;;;;12.33;71.42;100096.25;4957703;28;20050;-69
2022/06/15 02:15:20;;;;;;;0.57;0.52;;;;;;;12.24;71.50;100101.41;4973848;28;20055;-67
2022/06/15 02:18:00;;;;;;;0.77;0.77;;;;;;;12.25;71.83;100095.41;4975028;28;20138;-67
2022/06/15 02:20:35;;;;;;;0.50;0.50;;;;;;;12.30;71.18;100102.25;4973706;28;20051;-67
2022/06/15 02:23:09;;;;;;;0.93;0.50;;;;;;;12.31;70.73;100100.53;4975167;28;20101;-69
2022/06/15 02:25:46;;;;;;;0.50;0.50;;;;;;;12.34;70.65;100095.41;4975120;28;20459;-69
2022/06/15 02:28:19;;;;;;;0.73;0.70;;;;;;;12.35;70.49;100102.22;4974003;28;20591;-69
2022/06/15 02:30:58;;;;;;;1.42;1.17;;;;;;;12.34;70.16;100097.94;4973576;28;20054;-69
2022/06/15 02:33:30;;;;;;;2.08;1.17;;;;;;;12.36;70.21;100106.47;4974658;28;20043;-69
2022/06/15 02:36:02;;;;;;;0.50;0.50;;;;;;;12.35;70.02;100100.53;4973721;28;20491;-69
2022/06/15 02:38:32;;;;;;;0.90;0.90;;;;;;;12.34;69.65;100103.06;4973788;28;20102;-69
2022/06/15 02:41:03;;;;;;;0.50;0.50;;;;;;;12.32;69.77;100099.66;4974984;28;20137;-69
2022/06/15 02:43:34;;;;;;;0.43;0.43;;;;;;;12.28;70.01;100098.84;4973478;28;20047;-69
2022/06/15 02:46:10;;;;;;;0.75;0.73;;;;;;;12.27;69.95;100107.34;4974651;28;20054;-69
2022/06/15 02:48:41;;;;;;;0.70;0.60;;;;;;;12.24;70.10;100092.00;4973703;28;20081;-69
2022/06/15 02:51:17;;;;;;;0.40;0.40;;;;;;;12.28;70.03;100108.22;4974594;28;20070;-69
2022/06/15 02:53:58;;;;;;;1.00;0.90;;;;;;;12.26;70.17;100110.75;4973626;28;20043;-69
2022/06/15 02:56:32;;;;;;;1.75;1.05;;;;;;;12.27;70.16;100109.06;4974912;28;20121;-69
2022/06/15 02:59:02;;;;;;;6.53;1.08;;;;;;;12.18;70.26;100106.50;4973538;28;20121;-69
2022/06/15 03:01:36;;;;;;;0.70;0.65;;;;;;;12.23;70.46;100115.03;4974151;28;20046;-69
2022/06/15 03:04:07;;;;;;;1.63;1.00;;;;;;;12.20;70.43;100115.03;4974762;28;20047;-69
2022/06/15 03:06:45;;;;;;;0.40;0.40;;;;;;;12.09;70.72;100107.38;4974456;28;20042;-69
2022/06/15 03:09:17;;;;;;;0.98;0.88;;;;;;;12.09;71.09;100117.59;4974354;28;20047;-69
2022/06/15 03:12:01;;;;;;;0.88;0.88;;;;;;;11.82;71.00;100054.50;4973448;28;20160;-69
2022/06/15 03:14:34;;;;;;;0.73;0.73;;;;;;;12.27;70.94;100111.63;4974368;28;20047;-69
2022/06/15 03:17:08;;;;;;;0.73;0.73;;;;;;;12.34;70.74;100118.44;4976599;28;20138;-69
2022/06/15 03:19:54;;;;;;;0.35;0.35;;;;;;;12.36;70.92;100117.56;4977073;28;20055;-69
2022/06/15 03:22:23;;;;;;;0.75;0.70;;;;;;;12.38;70.61;100120.97;4977153;28;20074;-69
2022/06/15 03:24:56;;;;;;;1.75;0.65;;;;;;;12.41;70.66;100115.00;4976840;28;20047;-69
2022/06/15 03:27:26;;;;;;;0.40;0.40;;;;;;;12.46;70.36;100123.53;4977943;28;20053;-69
2022/06/15 03:30:13;;;;;;;0.70;0.70;;;;;;;12.51;70.44;100121.81;4978036;28;20142;-69
2022/06/15 03:32:51;;;;;;;0.60;0.60;;;;;;;12.59;70.18;100120.13;4976629;28;20133;-69
2022/06/15 03:35:34;;;;;;;0.40;0.40;;;;;;;12.71;69.79;100125.22;4977780;28;20468;-69
2022/06/15 03:38:13;;;;;;;0.70;0.70;;;;;;;12.78;69.81;100132.03;4977880;28;20043;-69
2022/06/15 03:40:49;;;;;;;0.70;0.60;;;;;;;12.83;69.39;100125.19;4976809;28;20461;-69
2022/06/15 03:43:19;;;;;;;;;;;;;;;12.83;69.35;100122.63;4978330;28;20074;-69
2022/06/15 03:45:48;;;;;;;0.60;0.60;;;;;;;12.88;69.45;100128.59;4977574;28;19953;-69
2022/06/15 03:48:20;;;;;;;0.50;0.50;;;;;;;12.95;69.58;100127.72;4976655;28;20043;-69
2022/06/15 03:50:54;;;;;;;0.50;0.50;;;;;;;12.98;69.34;100124.28;4976277;28;20043;-69
2022/06/15 03:53:25;;;;;;;1.13;0.80;;;;;;;13.04;69.17;100120.00;4976482;28;20426;-69
2022/06/15 03:55:55;;;;;;;3.47;1.02;;;;;;;13.12;68.96;100118.28;4976471;28;20185;-69
2022/06/15 03:58:24;;;;;;;27.55;1.35;;;;;;;13.19;68.97;100127.66;4977383;28;20570;-69
2022/06/15 04:00:55;;;;;;;0.63;0.63;;;;;;;13.26;68.62;100120.78;4976137;28;20054;-69
2022/06/15 04:03:30;;;;;;;1.00;1.00;;;;;;;13.31;68.52;100125.03;4977542;28;20546;-69
2022/06/15 04:06:08;;;;;;;0.77;0.70;;;;;;;13.42;68.40;100130.09;4960160;28;20089;-69
2022/06/15 04:08:42;;;;;;;0.60;0.60;;;;;;;13.44;68.24;100125.81;4959865;28;20410;-69
2022/06/15 04:14:22;;;;;;;0.80;0.77;;;;;;;13.63;67.91;100126.59;4977180;28;20077;-69
2022/06/15 04:17:02;;;;;;;0.70;0.70;;;;;;;13.71;68.09;100124.81;4972492;28;20134;-70
2022/06/15 04:19:42;;;;;;;0.40;0.40;;;;;;;13.81;67.52;100127.31;4957961;28;20059;-69
2022/06/15 04:22:18;;;;;;;0.50;0.50;;;;;;;13.94;67.93;100131.47;4957609;29;20055;-69
2022/06/15 04:24:50;;;;;;;0.80;0.80;;;;;;;13.98;67.38;100127.19;4972654;28;20504;-69
2022/06/15 04:27:19;;;;;;;0.47;0.47;;;;;;;14.09;67.11;100135.66;4971947;28;20051;-69
2022/06/15 04:29:49;;;;;;;0.50;0.50;;;;;;;14.18;66.88;100133.00;4972465;28;20106;-69
2022/06/15 04:32:18;;;;;;;0.60;0.60;;;;;;;14.29;66.42;100133.78;4972349;28;20045;-70
2022/06/15 04:34:49;;;;;;;0.50;0.50;;;;;;;14.35;66.19;100131.19;4958001;28;20074;-69
2022/06/15 04:37:23;;;;;;;0.70;0.70;;;;;;;14.52;66.12;100134.47;4957675;28;20051;-69
2022/06/15 04:39:57;;;;;;;0.77;0.73;;;;;;;14.67;66.46;100131.75;4972547;28;20051;-69
2022/06/15 04:42:26;;;;;;;;;;;;;;;14.83;66.02;100129.03;4957763;28;20051;-68
2022/06/15 04:44:55;;;;;;;0.47;0.47;;;;;;;14.96;65.74;100131.44;4972152;28;20013;-69
2022/06/15 04:47:30;;;;;;;0.57;0.55;;;;;;;15.09;65.53;100132.97;4972078;28;20044;-69
2022/06/15 04:50:00;;;;;;;0.60;0.60;;;;;;;15.22;65.12;100129.41;4972052;28;20079;-69
2022/06/15 04:52:40;;;;;;;0.63;0.63;;;;;;;15.35;64.91;100124.97;4972124;28;20047;-68
2022/06/15 04:55:11;;;;;;;0.70;0.70;;;;;;;15.38;64.61;100112.03;4956112;29;20055;-68
2022/06/15 04:57:40;;;;;;;1.05;0.52;;;;;;;15.65;64.63;100124.56;4957029;28;20051;-69
2022/06/15 05:00:13;;;;;;;0.80;0.80;;;;;;;15.80;64.07;100132.09;4972139;28;20074;-69
2022/06/15 05:02:46;;;;;;;0.75;0.75;;;;;;;15.89;63.84;100131.94;4971779;28;20047;-69
2022/06/15 05:05:36;;;;;;;0.40;0.40;;;;;;;15.86;62.87;100126.00;4971925;28;20431;-67
2022/06/15 05:08:09;;;;;;;0.70;0.70;;;;;;;15.86;61.80;100134.56;4972028;28;20047;-68
2022/06/15 05:10:42;;;;;;;0.52;0.52;;;;;;;15.94;61.80;100122.44;4972408;28;20411;-68
2022/06/15 05:13:14;;;;;;;0.47;0.47;;;;;;;16.08;61.87;100130.78;4971544;28;20043;-69
2022/06/15 05:15:56;;;;;;;0.63;0.63;;;;;;;16.18;61.29;100133.19;4971856;28;20047;-68
2022/06/15 05:18:31;;;;;;;0.68;0.68;;;;;;;16.27;61.10;100130.50;4971381;28;20051;-68
2022/06/15 05:21:05;;;;;;;0.70;0.70;;;;;;;16.34;61.57;100127.78;4957072;28;20055;-68
2022/06/15 05:23:35;;;;;;;0.65;0.63;;;;;;;16.51;61.35;100130.06;4971388;28;20094;-69
2022/06/15 05:26:11;;;;;;;1.05;0.70;;;;;;;16.63;61.17;100124.72;4971380;28;20062;-68
2022/06/15 05:28:44;;;;;;;0.40;0.40;;;;;;;16.74;60.77;100125.38;4971363;28;20044;-68
2022/06/15 05:31:23;;;;;;;0.60;0.50;;;;;;;16.86;60.36;100130.31;4971529;28;20087;-68
2022/06/15 05:33:58;;;;;;;13.27;1.35;;;;;;;16.97;59.92;100130.94;4956232;29;20046;-68
2022/06/15 05:36:34;;;;;;;0.80;0.80;;;;;;;17.00;60.04;100130.91;4971239;28;20059;-69
2022/06/15 05:39:10;;;;;;;0.63;0.63;;;;;;;17.08;59.94;100134.19;4970346;28;20079;-68
2022/06/15 05:41:42;;;;;;;0.50;0.50;;;;;;;17.25;60.03;100126.94;4971606;28;20047;-69
2022/06/15 05:44:16;;;;;;;1.10;1.00;;;;;;;17.35;59.64;100128.44;4970897;28;20495;-69
2022/06/15 05:46:57;;;;;;;0.90;0.90;;;;;;;17.36;59.41;100135.31;4970937;28;20079;-69
2022/06/15 05:49:40;;;;;;;0.70;0.70;;;;;;;17.42;59.29;100137.75;4956002;28;20126;-69
2022/06/15 05:52:11;;;;;;;0.68;0.68;;;;;;;17.27;59.16;100083.91;4955954;28;20055;-67
2022/06/15 05:54:45;;;;;;;0.70;0.70;;;;;;;17.24;58.97;100078.81;4970794;28;20530;-68
2022/06/15 05:57:18;;;;;;;0.70;0.70;;;;;;;17.65;58.83;100121.81;4956282;28;20098;-68
2022/06/15 05:59:49;;;;;;;0.85;0.85;;;;;;;17.78;58.77;100143.06;4956086;29;20399;-69
2022/06/15 06:02:19;;;;;;;1.00;0.70;;;;;;;17.83;58.46;100138.59;4955789;28;20047;-69
2022/06/15 06:04:57;;;;;;;0.60;0.60;;;;;;;17.98;58.31;100135.69;4956109;28;20051;-68
2022/06/15 06:07:26;;;;;;;0.57;0.57;;;;;;;18.09;57.95;100128.53;4955751;29;20055;-67
2022/06/15 06:09:56;;;;;;;0.60;0.60;;;;;;;18.21;57.40;100133.38;4955963;29;20051;-69
2022/06/15 06:12:25;;;;;;;1.08;0.98;;;;;;;18.37;57.33;100134.72;4955661;28;20048;-69
2022/06/15 06:14:54;;;;;;;1.40;1.17;;;;;;;18.54;57.28;100121.41;4955562;28;20467;-69
2022/06/15 06:17:23;;;;;;;0.73;0.73;;;;;;;18.54;56.72;100124.84;4962930;28;20101;-69
2022/06/15 06:19:52;;;;;;;0.68;0.68;;;;;;;18.50;56.48;100124.97;4974651;28;20074;-69
2022/06/15 06:22:24;;;;;;;0.75;0.60;;;;;;;18.51;56.11;100130.06;4974773;28;20070;-68
2022/06/15 06:24:53;;;;;;;0.70;0.70;;;;;;;18.67;56.36;100128.78;4975103;28;20050;-69
2022/06/15 06:27:24;;;;;;;0.60;0.60;;;;;;;18.83;56.16;100128.38;4975146;28;20031;-69
2022/06/15 06:29:59;;;;;;;0.68;0.68;;;;;;;18.95;55.90;100133.22;4975064;28;20145;-68
2022/06/15 06:32:28;;;;;;;0.55;0.55;;;;;;;19.08;55.66;100130.25;4974860;28;20433;-69
2022/06/15 06:35:07;;;;;;;0.80;0.70;;;;;;;19.21;55.28;100136.78;4974833;28;20516;-69
2022/06/15 06:37:46;;;;;;;;;;;;;;;19.19;54.62;100129.94;4975057;28;20051;-69
2022/06/15 06:40:16;;;;;;;0.70;0.70;;;;;;;19.26;54.29;100139.22;4974990;28;19928;-69
2022/06/15 06:42:50;;;;;;;0.60;0.50;;;;;;;19.33;54.14;100141.59;4974936;28;20046;-69
2022/06/15 06:45:19;;;;;;;0.73;0.73;;;;;;;19.35;54.69;100131.19;4973396;28;20133;-69
2022/06/15 06:47:48;;;;;;;0.55;0.55;;;;;;;19.54;54.04;100137.56;4974782;28;20118;-69
2022/06/15 06:50:23;;;;;;;1.48;0.77;;;;;;;19.64;53.75;100141.56;4975438;28;20051;-69
2022/06/15 06:52:53;;;;;;;1.25;0.88;;;;;;;19.72;53.51;100143.94;4976045;28;20046;-70
2022/06/15 06:55:26;;;;;;;0.68;0.68;;;;;;;19.77;54.36;100129.94;4982359;28;20149;-70
2022/06/15 06:57:58;;;;;;;0.52;0.52;;;;;;;19.84;54.29;100139.19;4977551;28;20051;-69
2022/06/15 07:00:28;;;;;;;0.52;0.52;;;;;;;19.99;53.18;100143.91;4978598;28;20043;-69
2022/06/15 07:02:59;;;;;;;0.70;0.65;;;;;;;20.15;52.44;100130.47;4978345;28;20046;-69
2022/06/15 07:05:29;;;;;;;0.47;0.47;;;;;;;20.29;52.29;100133.50;4978338;28;20054;-69
2022/06/15 07:07:57;;;;;;;1.50;1.40;;;;;;;20.36;51.84;100132.38;4978401;28;20043;-69
2022/06/15 07:10:26;;;;;;;0.70;0.70;;;;;;;20.25;51.59;100130.13;4978962;28;20067;-69
2022/06/15 07:12:57;;;;;;;0.50;0.50;;;;;;;20.32;51.48;100128.22;4977237;28;20792;-70
2022/06/15 07:15:26;;;;;;;0.93;0.93;;;;;;;20.31;50.74;100123.91;4977923;28;20055;-68
2022/06/15 07:17:58;;;;;;;4.10;1.07;;;;;;;20.30;50.71;100122.25;4977982;28;20449;-69
2022/06/15 07:20:27;;;;;;;0.50;0.50;;;;;;;20.50;50.53;100115.47;4978011;28;20495;-69
2022/06/15 07:22:57;;;;;;;0.70;0.70;;;;;;;20.71;49.66;100116.47;4977930;28;20043;-69
2022/06/15 07:25:30;;;;;;;0.73;0.73;;;;;;;20.72;49.04;100118.16;4977809;28;20054;-68
2022/06/15 07:28:01;;;;;;;0.70;0.70;;;;;;;20.90;49.02;100120.09;4977940;28;20043;-69
2022/06/15 07:30:31;;;;;;;0.80;0.80;;;;;;;21.04;48.28;100112.66;4972665;28;20067;-69
2022/06/15 07:33:00;;;;;;;1.08;0.93;;;;;;;21.12;47.10;100115.88;4977840;28;20090;-68
2022/06/15 07:35:34;;;;;;;0.77;0.77;;;;;;;21.24;46.67;100117.16;4976682;28;20051;-69
2022/06/15 07:38:03;;;;;;;1.38;0.93;;;;;;;21.43;46.32;100114.75;4977817;28;20146;-69
2022/06/15 07:40:52;;;;;;;;;;;;;;;21.61;46.10;100119.22;4977935;28;20074;-70
2022/06/15 07:43:22;;;;;;;0.50;0.50;;;;;;;21.68;46.12;100112.88;4975747;28;19953;-70
2022/06/15 07:45:51;;;;;;;0.50;0.50;;;;;;;21.76;46.04;100121.22;4958137;29;20043;-70
2022/06/15 07:50:59;;;;;;;0.60;0.60;;;;;;;21.96;46.02;100113.50;4977406;28;20074;-70
2022/06/15 07:53:28;;;;;;;1.00;0.70;;;;;;;22.03;44.53;100114.94;4977700;28;20446;-70
2022/06/15 07:55:57;;;;;;;0.70;0.70;;;;;;;22.00;43.67;100112.50;4977263;28;20102;-70
2022/06/15 07:58:27;;;;;;;0.63;0.63;;;;;;;22.10;43.75;100118.97;4977901;28;20078;-71
2022/06/15 08:00:56;;;;;;;0.60;0.60;;;;;;;22.17;43.49;100115.22;4977565;28;20435;-69
2022/06/15 08:03:25;;;;;;;0.50;0.50;;;;;;;22.27;43.96;100116.53;4976810;28;20039;-70
2022/06/15 08:05:54;;;;;;;0.60;0.60;;;;;;;22.32;43.43;100116.34;4977241;28;20053;-70
2022/06/15 08:08:25;;;;;;;0.65;0.65;;;;;;;22.35;43.83;100114.47;4977290;28;20042;-70
2022/06/15 08:10:55;;;;;;;0.60;0.60;;;;;;;22.53;43.99;100108.47;4977152;28;20114;-68
2022/06/15 08:13:24;;;;;;;0.57;0.57;;;;;;;22.58;43.74;100101.34;4977203;28;20047;-71
2022/06/15 08:15:54;;;;;;;0.60;0.60;;;;;;;22.71;43.66;100111.25;4973942;28;20047;-71
2022/06/15 08:18:28;;;;;;;0.60;0.60;;;;;;;22.70;43.02;100099.16;4976368;28;20065;-70
2022/06/15 08:21:00;;;;;;;1.15;1.05;;;;;;;22.75;42.03;100105.00;4977206;28;20125;-71
2022/06/15 08:23:34;;;;;;;0.57;0.57;;;;;;;22.87;41.57;100096.63;4976952;28;20050;-71
2022/06/15 08:26:07;;;;;;;0.98;0.68;;;;;;;23.07;41.90;100096.59;4976709;28;20487;-71
2022/06/15 08:28:40;;;;;;;0.50;0.50;;;;;;;23.27;42.28;100096.56;4985499;28;20038;-70
2022/06/15 08:31:11;;;;;;;0.60;0.60;;;;;;;23.21;42.37;100096.81;4996205;28;20050;-71
2022/06/15 08:33:41;;;;;;;0.80;0.80;;;;;;;23.27;42.19;100096.56;4996072;28;20046;-69
2022/06/15 08:36:12;;;;;;;0.55;0.55;;;;;;;23.34;42.02;100098.81;4996259;28;20125;-71
2022/06/15 08:38:42;;;;;;;0.55;0.55;;;;;;;23.24;41.42;100094.94;4996047;28;20059;-69
2022/06/15 08:41:13;;;;;;;;;;;;;;;23.24;41.36;100096.69;4996741;28;20421;-70
2022/06/15 08:43:57;;;;;;;0.98;0.70;;;;;;;23.36;41.67;100095.31;4967886;28;20021;-71
2022/06/15 08:46:39;;;;;;;0.82;0.65;;;;;;;23.49;41.63;100101.66;4968168;28;20155;-70
2022/06/15 08:49:20;;;;;;;1.05;0.85;;;;;;;23.80;41.90;100092.28;4976508;28;20085;-71
2022/06/15 08:51:55;;;;;;;0.60;0.60;;;;;;;24.25;42.05;100091.00;4975076;28;20670;-72
2022/06/15 08:54:29;;;;;;;0.95;0.88;;;;;;;24.68;40.83;100098.31;4976203;28;20050;-71
2022/06/15 08:57:07;;;;;;;0.55;0.55;;;;;;;25.15;40.96;100096.69;4976472;28;20469;-72
2022/06/15 08:59:42;;;;;;;1.23;1.13;;;;;;;25.48;40.23;100090.59;4975500;28;20510;-72
2022/06/15 09:02:22;;;;;;;0.50;0.50;;;;;;;25.72;39.76;100094.47;4958318;28;20507;-71
2022/06/15 09:04:57;;;;;;;0.75;0.75;;;;;;;26.13;39.16;100100.81;4956996;29;20043;-71
2022/06/15 09:07:41;;;;;;;0.73;0.55;;;;;;;26.29;38.53;100064.97;4956762;29;20082;-71
2022/06/15 09:10:24;;;;;;;0.80;0.80;;;;;;;26.18;37.60;100083.06;4939837;29;20057;-72
2022/06/15 09:13:03;;;;;;;0.50;0.50;;;;;;;26.17;37.31;100081.41;4957038;28;20102;-72
2022/06/15 09:15:42;;;;;;;0.68;0.68;;;;;;;26.21;36.97;100088.13;4972292;28;20054;-71
2022/06/15 09:18:18;;;;;;;0.50;0.50;;;;;;;25.97;36.79;100084.28;4956579;29;20065;-71
2022/06/15 09:20:53;;;;;;;0.85;0.68;;;;;;;25.87;37.76;100078.72;4956517;29;20098;-71
2022/06/15 09:23:29;;;;;;;0.50;0.50;;;;;;;26.13;37.59;100074.63;4956471;29;20055;-68
2022/06/15 09:26:03;;;;;;;1.67;1.25;;;;;;;26.15;37.61;100067.56;4982653;28;20554;-71
2022/06/15 09:28:38;;;;;;;0.50;0.50;;;;;;;25.88;37.13;100074.34;4975769;28;20074;-71
2022/06/15 09:31:11;;;;;;;0.40;0.40;;;;;;;26.00;37.13;100075.41;4975670;28;20153;-70
2022/06/15 09:33:46;;;;;;;2.35;1.23;;;;;;;25.80;37.71;100080.00;4964558;28;20065;-72
2022/06/15 09:36:21;;;;;;;0.68;0.68;;;;;;;25.69;37.48;100073.69;4983159;28;20065;-70
2022/06/15 09:38:50;;;;;;;0.43;0.43;;;;;;;25.50;37.68;100071.28;4975414;28;20077;-71
2022/06/15 09:41:24;;;;;;;1.02;0.90;;;;;;;25.55;38.35;100065.78;4981518;28;20034;-71
2022/06/15 09:44:12;;;;;;;0.60;0.60;;;;;;;25.68;38.90;100074.63;4991550;28;20084;-72
2022/06/15 09:47:11;;;;;;;0.50;0.50;;;;;;;25.84;39.13;100073.66;4985209;28;20038;-71
2022/06/15 09:49:53;;;;;;;0.68;0.68;;;;;;;25.78;37.89;100062.72;4981488;28;20443;-71
2022/06/15 09:52:30;;;;;;;1.00;0.90;;;;;;;25.75;37.52;100068.13;4968610;28;20058;-71
2022/06/15 09:55:07;;;;;;;0.50;0.50;;;;;;;25.89;38.02;100065.59;4974173;28;20047;-72
2022/06/15 09:57:37;;;;;;;1.75;1.27;;;;;;;25.85;37.36;100064.91;4959536;28;20129;-72
2022/06/15 10:00:09;;;;;;;0.50;0.50;;;;;;;26.00;37.22;100057.94;4975004;28;20058;-72
2022/06/15 10:02:44;;;;;;;0.50;0.50;;;;;;;25.92;37.67;100063.63;4975074;28;20138;-71
2022/06/15 10:05:22;;;;;;;0.60;0.60;;;;;;;25.69;37.78;100061.47;4974935;28;20047;-71
2022/06/15 10:07:53;;;;;;;0.70;0.70;;;;;;;25.59;37.44;100046.38;4975046;28;20073;-71
2022/06/15 10:10:25;;;;;;;0.60;0.60;;;;;;;25.59;37.31;100055.06;4975351;28;20101;-71
2022/06/15 10:13:02;;;;;;;0.70;0.70;;;;;;;25.46;37.63;100061.09;4957713;28;20458;-70
2022/06/15 10:15:37;;;;;;;0.40;0.40;;;;;;;25.50;37.43;100052.13;4974912;28;20043;-71
2022/06/15 10:18:18;;;;;;;0.40;0.40;;;;;;;25.78;37.02;100052.25;4975362;28;20439;-71
2022/06/15 10:21:21;;;;;;;0.40;0.40;;;;;;;25.98;37.67;100038.88;4974853;28;20047;-71
2022/06/15 10:23:55;;;;;;;0.40;0.40;;;;;;;26.17;37.63;100046.53;4961653;28;20043;-71
2022/06/15 10:26:32;;;;;;;0.52;0.50;;;;;;;26.26;38.19;100043.34;4974303;28;20057;-71
2022/06/15 10:29:23;;;;;;;0.60;0.60;;;;;;;26.30;37.92;100023.94;4975072;28;20434;-70
2022/06/15 10:32:06;;;;;;;0.82;0.77;;;;;;;26.44;37.53;100043.09;4975023;28;20047;-71
2022/06/15 10:34:51;;;;;;;0.70;0.70;;;;;;;26.57;37.21;100033.56;4974736;28;20406;-71
2022/06/15 10:37:30;;;;;;;0.60;0.60;;;;;;;26.63;38.06;100036.75;4974613;28;20050;-70
2022/06/15 10:40:03;;;;;;;0.47;0.47;;;;;;;26.08;36.24;100018.25;4974507;28;20097;-70
2022/06/15 10:42:37;;;;;;;0.60;0.60;;;;;;;26.15;36.68;100030.91;4974936;28;20460;-71
2022/06/15 10:45:08;;;;;;;0.50;0.50;;;;;;;26.39;37.25;100023.38;4974863;28;20470;-71
2022/06/15 10:47:44;;;;;;;0.70;0.70;;;;;;;26.63;37.03;100025.34;4975020;28;20046;-70
2022/06/15 10:50:23;;;;;;;0.63;0.50;;;;;;;26.82;36.21;100024.25;4974532;28;20063;-72
2022/06/15 10:52:59;;;;;;;0.57;0.57;;;;;;;26.76;34.76;100022.84;4974525;28;20047;-71
2022/06/15 11:04:09;;;;;;;0.40;0.40;;;;;;;26.73;35.87;100011.69;4974377;28;20105;-70
2022/06/15 11:06:41;;;;;;;0.50;0.50;;;;;;;26.18;35.84;99919.97;4974305;28;20079;-71
2022/06/15 11:09:28;;;;;;;1.05;0.98;;;;;;;26.66;35.61;99994.69;4972889;28;20122;-70
2022/06/15 11:12:00;;;;;;;0.40;0.40;;;;;;;26.68;35.38;99991.03;4974233;28;20143;-71
2022/06/15 11:14:32;;;;;;;0.60;0.60;;;;;;;26.65;36.39;100003.47;4974326;28;20050;-71
2022/06/15 11:19:58;;;;;;;0.60;0.55;;;;;;;26.61;36.38;99990.53;4984031;28;20038;-71
2022/06/15 11:22:28;;;;;;;0.50;0.50;;;;;;;26.70;35.55;99996.16;4983552;28;20514;-72
2022/06/15 11:25:06;;;;;;;0.50;0.50;;;;;;;26.94;34.92;99992.03;4980087;28;20049;-72
2022/06/15 11:27:41;;;;;;;0.60;0.60;;;;;;;27.01;35.75;99995.97;4983653;28;20065;-72
2022/06/15 11:30:21;;;;;;;0.40;0.40;;;;;;;26.97;35.90;99994.47;4982662;28;20046;-69
2022/06/15 11:32:58;;;;;;;0.50;0.50;;;;;;;26.85;36.20;99990.81;4982835;28;20548;-71
2022/06/15 11:35:38;;;;;;;0.50;0.50;;;;;;;26.95;35.30;99996.34;4982448;28;20122;-71
2022/06/15 11:38:18;;;;;;;0.40;0.40;;;;;;;27.09;36.19;99984.03;4984042;28;20135;-71
2022/06/15 11:40:52;;;;;;;0.40;0.40;;;;;;;27.19;36.02;99986.91;4978587;28;20491;-71
2022/06/15 11:43:23;;;;;;;1.20;0.98;;;;;;;26.94;35.67;99986.81;4977560;28;20061;-71
2022/06/15 11:46:17;;;;;;;0.50;0.50;;;;;;;26.94;36.36;99989.44;4977931;28;20141;-71
2022/06/15 11:48:59;;;;;;;0.40;0.40;;;;;;;26.90;36.04;99987.94;4974145;28;20038;-71
2022/06/15 11:51:42;;;;;;;0.47;0.47;;;;;;;26.72;35.12;99989.03;4978451;28;20050;-71
2022/06/15 11:54:23;;;;;;;0.30;0.30;;;;;;;26.60;35.51;99986.25;4977376;28;20093;-71
2022/06/15 11:57:01;;;;;;;0.50;0.50;;;;;;;26.66;35.91;99990.25;4977531;28;20478;-69
2022/06/15 11:59:41;;;;;;;0.55;0.55;;;;;;;26.89;35.90;99981.00;4955892;29;20043;-70
2022/06/15 12:02:17;;;;;;;0.40;0.40;;;;;;;27.08;36.04;99982.38;4957866;29;20071;-72
2022/06/15 12:05:09;;;;;;;1.08;1.00;;;;;;;27.11;34.36;99976.09;4957993;29;20075;-71
2022/06/15 12:07:49;;;;;;;1.48;1.10;;;;;;;27.19;35.19;99979.06;4958181;29;20403;-70
2022/06/15 12:10:35;;;;;;;1.00;0.80;;;;;;;27.26;34.99;99977.72;4972501;28;20399;-72
2022/06/15 12:13:13;;;;;;;0.60;0.60;;;;;;;27.35;35.19;99973.69;4960631;28;20507;-72
2022/06/15 12:15:46;;;;;;;0.50;0.50;;;;;;;27.48;35.05;99972.78;4977714;28;20047;-71
2022/06/15 12:18:24;;;;;;;0.50;0.45;;;;;;;27.79;36.38;99969.84;4976817;28;20047;-71